Time;durP1;ratioP1;P1;durP2;ratioP2;P2;SDS_P1;SDS_P2;PMS_P1;PMS_P2;Temp;Humidity;BMP_temperature;BMP_pressure;BME280_temperature;BME280_humidity;BME280_pressure;Samples;Min_cycle;Max_cycle;Signal;HPM_P1;HPM_P2
2022/04/18 00:01:20;;;;;;;10.83;6.50;;;12.00;19.80;;;;;;5092563;28;20183;-64
2022/04/18 00:03:46;;;;;;;12.53;6.93;;;12.00;20.20;;;;;;5093456;28;20181;-65
2022/04/18 00:06:11;;;;;;;13.13;7.03;;;11.70;21.80;;;;;;5118209;27;20182;-65
2022/04/18 00:08:37;;;;;;;10.73;7.00;;;11.80;22.40;;;;;;5093544;28;20583;-64
2022/04/18 00:11:03;;;;;;;13.50;7.10;;;11.70;22.20;;;;;;5102616;28;20185;-65
2022/04/18 00:13:28;;;;;;;13.63;6.83;;;11.80;22.40;;;;;;5107706;28;20186;-65
2022/04/18 00:15:54;;;;;;;12.23;7.20;;;11.60;20.80;;;;;;5100800;28;20201;-65
2022/04/18 00:18:20;;;;;;;11.13;7.07;;;11.60;23.10;;;;;;5111479;28;20200;-67
2022/04/18 00:20:45;;;;;;;10.03;6.10;;;11.40;22.80;;;;;;5105011;28;20204;-64
2022/04/18 00:23:11;;;;;;;11.13;6.73;;;11.30;22.80;;;;;;5092968;28;20175;-65
2022/04/18 00:25:37;;;;;;;11.50;7.57;;;11.30;22.40;;;;;;5106531;28;20207;-65
2022/04/18 00:28:02;;;;;;;14.23;6.87;;;11.10;23.40;;;;;;5092895;28;20182;-65
2022/04/18 00:30:28;;;;;;;10.93;6.73;;;11.00;23.80;;;;;;5102246;28;20534;-65
2022/04/18 00:32:54;;;;;;;11.73;6.97;;;10.90;24.40;;;;;;5111803;28;20184;-65
2022/04/18 00:35:19;;;;;;;10.80;6.73;;;11.00;23.60;;;;;;5110323;28;20203;-65
2022/04/18 00:37:45;;;;;;;11.03;6.40;;;10.90;23.60;;;;;;5102470;28;20180;-65
2022/04/18 00:40:12;;;;;;;11.90;7.00;;;10.80;22.90;;;;;;5094227;28;20174;-66
2022/04/18 00:42:44;;;;;;;13.65;7.90;;;10.70;23.50;;;;;;5103232;28;20261;-65
2022/04/18 00:45:10;;;;;;;14.00;8.05;;;10.60;23.50;;;;;;5093922;28;20201;-65
2022/04/18 00:47:36;;;;;;;12.32;7.43;;;10.80;23.20;;;;;;5105515;27;20217;-65
2022/04/18 00:50:02;;;;;;;13.73;7.53;;;10.70;24.10;;;;;;5112201;28;20263;-65
2022/04/18 00:52:30;;;;;;;15.95;8.18;;;10.60;24.30;;;;;;5112121;28;20181;-65
2022/04/18 00:54:57;;;;;;;13.30;7.60;;;10.40;24.60;;;;;;5107685;28;20207;-65
2022/04/18 00:57:24;;;;;;;15.35;7.28;;;10.60;24.10;;;;;;5092485;28;20174;-67
2022/04/18 00:59:50;;;;;;;14.98;7.65;;;10.60;23.70;;;;;;5103276;28;20227;-65
2022/04/18 01:02:17;;;;;;;12.53;7.90;;;10.50;23.90;;;;;;5093177;28;20186;-64
2022/04/18 01:04:43;;;;;;;14.70;8.23;;;10.40;25.10;;;;;;5104774;28;20228;-64
2022/04/18 01:07:11;;;;;;;15.03;7.90;;;10.30;25.40;;;;;;5098414;28;20221;-68
2022/04/18 01:09:37;;;;;;;11.50;7.38;;;10.30;25.20;;;;;;5112915;27;20235;-66
2022/04/18 01:12:03;;;;;;;20.37;8.30;;;10.20;26.10;;;;;;5108335;28;20195;-68
2022/04/18 01:14:28;;;;;;;13.00;7.57;;;10.30;25.60;;;;;;5091325;28;20194;-67
2022/04/18 01:16:54;;;;;;;13.40;7.70;;;10.30;25.70;;;;;;5092616;28;20294;-67
2022/04/18 01:19:19;;;;;;;13.73;8.20;;;10.30;25.70;;;;;;5094430;28;20203;-67
2022/04/18 01:21:45;;;;;;;18.00;8.00;;;10.20;25.60;;;;;;5111382;28;20172;-66
2022/04/18 01:29:39;;;;;;;13.25;8.00;;;10.20;25.20;;;;;;5103279;28;20559;-66
2022/04/18 01:32:06;;;;;;;12.10;7.80;;;10.40;23.70;;;;;;5109137;28;20182;-67
2022/04/18 01:34:31;;;;;;;12.55;7.63;;;10.30;23.80;;;;;;5110672;28;20193;-68
2022/04/18 01:36:57;;;;;;;13.67;8.17;;;10.10;24.80;;;;;;5109450;28;20213;-67
2022/04/18 01:39:22;;;;;;;21.00;8.63;;;10.00;26.00;;;;;;5099859;28;20174;-65
2022/04/18 01:41:48;;;;;;;16.03;8.90;;;9.90;26.40;;;;;;5099696;28;20181;-67
2022/04/18 01:44:14;;;;;;;22.93;8.20;;;10.10;24.30;;;;;;5111471;28;20197;-65
2022/04/18 01:46:39;;;;;;;10.60;6.93;;;9.90;26.10;;;;;;5109819;28;20178;-66
2022/04/18 01:49:05;;;;;;;12.53;8.23;;;10.10;24.80;;;;;;5108880;28;20187;-67
2022/04/18 01:51:31;;;;;;;17.20;8.10;;;10.00;25.20;;;;;;5106902;28;20659;-67
2022/04/18 01:53:56;;;;;;;12.30;7.70;;;10.00;25.90;;;;;;5090811;28;20179;-67
2022/04/18 01:56:22;;;;;;;14.40;7.80;;;10.20;24.30;;;;;;5090968;28;20202;-67
2022/04/18 01:58:48;;;;;;;11.53;7.50;;;10.20;23.80;;;;;;5092261;28;20266;-67
2022/04/18 02:01:15;;;;;;;11.30;6.97;;;10.00;23.80;;;;;;5093512;28;20822;-65
2022/04/18 02:03:43;;;;;;;14.77;7.30;;;10.10;23.70;;;;;;5110866;28;20170;-65
2022/04/18 02:06:10;;;;;;;13.18;7.70;;;10.00;26.10;;;;;;5110520;28;20209;-68
2022/04/18 02:08:35;;;;;;;12.63;7.50;;;9.90;26.30;;;;;;5111081;28;20182;-67
2022/04/18 02:11:02;;;;;;;18.40;7.77;;;9.60;26.60;;;;;;5109487;28;20201;-67
2022/04/18 02:13:28;;;;;;;28.40;7.80;;;9.40;27.60;;;;;;5108448;28;20182;-68
2022/04/18 02:15:57;;;;;;;20.00;7.97;;;9.40;28.40;;;;;;5083333;28;20220;-67
2022/04/18 02:18:23;;;;;;;13.55;7.68;;;9.60;26.50;;;;;;5091038;28;20175;-66
2022/04/18 02:20:49;;;;;;;12.07;7.68;;;9.60;27.40;;;;;;5108503;28;20190;-65
2022/04/18 02:23:15;;;;;;;11.87;7.30;;;9.50;26.50;;;;;;5109259;28;20265;-65
2022/04/18 02:25:40;;;;;;;11.10;7.30;;;9.40;27.80;;;;;;5110408;28;20457;-67
2022/04/18 02:28:06;;;;;;;15.63;7.80;;;9.40;27.90;;;;;;5097588;28;20307;-67
2022/04/18 02:30:32;;;;;;;17.13;8.23;;;9.20;28.30;;;;;;5095407;28;20425;-67
2022/04/18 02:32:57;;;;;;;15.30;8.20;;;9.20;27.80;;;;;;5101111;28;20178;-67
2022/04/18 02:35:24;;;;;;;12.57;8.70;;;9.00;27.50;;;;;;5102041;28;20750;-66
2022/04/18 02:37:51;;;;;;;17.60;9.68;;;9.00;27.90;;;;;;5073446;28;20586;-67
2022/04/18 02:40:18;;;;;;;16.65;9.60;;;8.80;29.20;;;;;;5095191;28;20185;-67
2022/04/18 02:42:43;;;;;;;17.92;10.10;;;8.90;28.10;;;;;;5090469;28;20245;-67
2022/04/18 02:45:14;;;;;;;15.20;8.87;;;8.90;28.60;;;;;;5103197;28;20276;-66
2022/04/18 02:47:40;;;;;;;14.40;8.52;;;8.90;29.80;;;;;;5108254;28;20498;-66
2022/04/18 02:50:07;;;;;;;14.50;8.65;;;8.80;29.00;;;;;;5094162;28;20178;-67
2022/04/18 02:52:33;;;;;;;15.93;8.38;;;8.70;29.10;;;;;;5095140;28;20177;-67
2022/04/18 02:54:59;;;;;;;15.80;8.20;;;8.70;29.40;;;;;;5099611;28;20288;-67
2022/04/18 02:57:26;;;;;;;13.98;8.05;;;8.70;29.10;;;;;;5114487;28;20170;-67
2022/04/18 02:59:51;;;;;;;13.75;8.27;;;8.80;29.20;;;;;;5092447;28;20216;-67
2022/04/18 03:02:17;;;;;;;13.80;7.67;;;8.80;28.50;;;;;;5108735;28;20178;-67
2022/04/18 03:04:43;;;;;;;14.43;8.40;;;8.60;29.50;;;;;;5075480;28;20218;-67
2022/04/18 03:07:08;;;;;;;15.40;8.13;;;8.60;30.00;;;;;;5106305;28;20239;-67
2022/04/18 03:09:34;;;;;;;15.40;8.80;;;8.60;29.40;;;;;;5095552;28;20189;-67
2022/04/18 03:12:02;;;;;;;13.73;8.20;;;8.50;29.60;;;;;;5094553;28;20537;-67
2022/04/18 03:14:28;;;;;;;16.33;9.30;;;8.50;30.30;;;;;;5093659;28;20655;-67
2022/04/18 03:16:54;;;;;;;16.73;8.55;;;8.50;30.10;;;;;;5085928;28;20206;-68
2022/04/18 03:19:19;;;;;;;13.53;7.93;;;8.60;29.70;;;;;;5101961;28;20182;-67
2022/04/18 03:21:45;;;;;;;12.73;7.70;;;8.40;30.00;;;;;;5109696;28;20182;-66
2022/04/18 03:24:11;;;;;;;16.23;8.73;;;8.50;30.10;;;;;;5113543;28;20198;-67
2022/04/18 03:26:36;;;;;;;12.63;7.80;;;8.50;29.70;;;;;;5110952;28;20222;-66
2022/04/18 03:29:02;;;;;;;18.23;8.20;;;8.50;30.30;;;;;;5093337;28;20202;-67
2022/04/18 03:31:28;;;;;;;13.73;8.10;;;8.40;29.70;;;;;;5102800;28;20178;-67
2022/04/18 03:33:53;;;;;;;14.10;8.33;;;8.60;28.80;;;;;;5111267;28;20331;-67
2022/04/18 03:41:47;;;;;;;13.38;8.75;;;8.00;31.60;;;;;;5102301;28;20173;-67
2022/04/18 03:44:13;;;;;;;12.83;8.30;;;7.90;32.40;;;;;;5101109;28;20199;-67
2022/04/18 03:46:39;;;;;;;13.67;8.30;;;7.90;31.50;;;;;;5111090;28;20648;-66
2022/04/18 03:49:04;;;;;;;17.80;8.07;;;7.90;31.60;;;;;;5108453;28;20181;-68
2022/04/18 03:51:30;;;;;;;13.67;8.30;;;7.90;30.50;;;;;;5100370;28;20182;-68
2022/04/18 03:53:55;;;;;;;16.23;8.17;;;7.90;31.40;;;;;;5093714;28;20190;-67
2022/04/18 03:56:21;;;;;;;15.83;8.17;;;7.90;31.60;;;;;;5093819;28;20198;-68
2022/04/18 03:58:47;;;;;;;17.50;7.50;;;8.00;30.10;;;;;;5093077;28;20178;-68
2022/04/18 04:01:12;;;;;;;13.00;7.87;;;7.90;30.50;;;;;;5092679;28;20173;-68
2022/04/18 04:03:38;;;;;;;13.07;8.00;;;7.90;31.90;;;;;;5101818;28;20679;-67
2022/04/18 04:06:04;;;;;;;14.07;8.20;;;8.00;31.00;;;;;;5105961;28;20209;-67
2022/04/18 04:08:31;;;;;;;12.00;7.70;;;8.00;31.30;;;;;;5092759;28;20175;-66
2022/04/18 04:10:57;;;;;;;14.30;7.85;;;8.30;30.80;;;;;;5104981;28;20231;-68
2022/04/18 04:13:23;;;;;;;14.10;7.70;;;7.80;31.40;;;;;;5095125;28;20179;-68
2022/04/18 04:15:49;;;;;;;14.02;8.02;;;8.20;31.70;;;;;;5092876;28;20206;-68
2022/04/18 04:18:14;;;;;;;12.40;7.80;;;7.90;30.00;;;;;;5097908;28;20224;-67
2022/04/18 04:20:40;;;;;;;15.20;9.03;;;8.00;31.40;;;;;;5101104;28;20173;-67
2022/04/18 04:23:05;;;;;;;18.37;8.90;;;8.10;29.20;;;;;;5101271;28;20178;-66
2022/04/18 04:25:31;;;;;;;16.77;8.33;;;7.90;30.80;;;;;;5092846;28;20216;-68
2022/04/18 04:27:56;;;;;;;15.27;9.33;;;7.90;30.50;;;;;;5101486;28;20222;-67
2022/04/18 04:30:22;;;;;;;20.93;8.80;;;7.90;31.20;;;;;;5100093;28;20182;-68
2022/04/18 04:32:50;;;;;;;34.33;9.27;;;8.10;29.10;;;;;;5112537;28;20253;-67
2022/04/18 04:35:17;;;;;;;16.50;9.52;;;8.10;29.20;;;;;;5102984;28;20672;-67
2022/04/18 04:37:42;;;;;;;14.40;8.43;;;8.20;28.40;;;;;;5102385;28;20231;-67
2022/04/18 04:40:09;;;;;;;19.47;8.87;;;7.90;28.40;;;;;;5101795;28;20186;-68
2022/04/18 04:42:34;;;;;;;17.80;8.75;;;7.80;28.90;;;;;;5107818;28;20180;-67
2022/04/18 04:45:00;;;;;;;14.23;8.80;;;7.70;30.20;;;;;;5112304;28;20229;-66
2022/04/18 04:47:26;;;;;;;17.00;8.60;;;7.70;31.30;;;;;;5102933;28;20427;-67
2022/04/18 04:49:51;;;;;;;15.90;9.00;;;7.60;31.30;;;;;;5107049;28;20545;-68
2022/04/18 04:52:19;;;;;;;14.13;9.07;;;7.80;31.70;;;;;;5106636;28;20174;-68
2022/04/18 04:54:44;;;;;;;13.25;8.43;;;7.70;30.20;;;;;;5111667;28;20283;-67
2022/04/18 04:57:10;;;;;;;14.40;8.07;;;7.60;30.30;;;;;;5111921;28;20676;-68
2022/04/18 04:59:35;;;;;;;17.50;8.40;;;7.50;31.80;;;;;;5094082;28;20179;-68
2022/04/18 05:02:01;;;;;;;16.53;9.70;;;7.40;31.60;;;;;;5092724;28;20226;-68
2022/04/18 05:04:27;;;;;;;17.23;9.10;;;7.50;32.00;;;;;;5109631;28;20590;-67
2022/04/18 05:06:53;;;;;;;15.95;9.43;;;7.70;30.90;;;;;;5105022;28;20199;-67
2022/04/18 05:09:19;;;;;;;14.83;8.40;;;7.90;30.40;;;;;;5093830;28;20210;-66
2022/04/18 05:11:46;;;;;;;16.50;9.30;;;7.70;30.40;;;;;;5093341;28;20428;-67
2022/04/18 05:14:13;;;;;;;15.05;8.98;;;7.80;31.50;;;;;;5102202;28;20202;-67
2022/04/18 05:16:39;;;;;;;13.88;8.63;;;7.90;30.10;;;;;;5091619;28;20213;-67
2022/04/18 05:19:06;;;;;;;15.75;8.40;;;8.00;30.70;;;;;;5106758;28;20261;-66
2022/04/18 05:21:31;;;;;;;14.32;8.38;;;8.00;30.30;;;;;;5091226;28;20672;-67
2022/04/18 05:23:57;;;;;;;25.53;8.17;;;8.50;31.30;;;;;;5092634;28;20182;-67
2022/04/18 05:26:23;;;;;;;13.40;8.43;;;8.20;30.00;;;;;;5097073;28;20177;-68
2022/04/18 05:28:48;;;;;;;15.30;7.90;;;8.30;30.20;;;;;;5104904;28;20185;-68
2022/04/18 05:31:17;;;;;;;13.87;8.33;;;8.20;30.00;;;;;;5092457;28;20428;-67
2022/04/18 05:33:43;;;;;;;17.38;8.65;;;8.10;30.00;;;;;;5093891;28;20189;-68
2022/04/18 05:36:09;;;;;;;12.35;8.27;;;8.10;30.00;;;;;;5109321;28;20198;-67
2022/04/18 05:38:35;;;;;;;13.97;8.47;;;8.10;30.10;;;;;;5092243;28;20296;-68
2022/04/18 05:41:01;;;;;;;15.55;9.20;;;8.20;29.80;;;;;;5093114;28;20431;-68
2022/04/18 05:43:27;;;;;;;16.13;9.02;;;8.40;30.80;;;;;;5102840;28;20229;-68
2022/04/18 05:45:53;;;;;;;15.77;8.77;;;8.70;29.80;;;;;;5105286;28;20229;-68
2022/04/18 05:48:19;;;;;;;15.40;9.23;;;8.40;29.30;;;;;;5109867;28;20275;-67
2022/04/18 05:50:47;;;;;;;14.43;8.87;;;8.50;28.40;;;;;;5096156;28;20784;-67
2022/04/18 05:53:13;;;;;;;15.95;8.77;;;8.70;29.00;;;;;;5092107;28;20179;-67
2022/04/18 05:55:39;;;;;;;17.45;9.93;;;8.80;27.80;;;;;;5092906;28;20913;-68
2022/04/18 05:58:05;;;;;;;13.77;8.60;;;8.80;28.70;;;;;;5093327;28;20210;-68
2022/04/18 06:00:34;;;;;;;16.60;9.57;;;9.00;28.70;;;;;;5091238;28;20621;-67
2022/04/18 06:03:01;;;;;;;13.85;8.77;;;9.30;27.80;;;;;;5092743;28;20703;-68
2022/04/18 06:05:27;;;;;;;15.63;9.85;;;9.30;27.80;;;;;;5090637;28;20214;-68
2022/04/18 06:07:53;;;;;;;16.50;9.77;;;9.50;27.70;;;;;;5102144;28;20182;-67
2022/04/18 06:10:19;;;;;;;16.10;9.37;;;9.90;27.70;;;;;;5109570;28;20898;-68
2022/04/18 06:12:45;;;;;;;13.32;8.90;;;10.30;25.30;;;;;;5102884;28;20476;-68
2022/04/18 06:15:10;;;;;;;15.10;9.20;;;10.50;24.30;;;;;;5102671;28;20191;-66
2022/04/18 06:17:36;;;;;;;16.90;10.03;;;10.80;24.20;;;;;;5090588;28;20192;-68
2022/04/18 06:20:03;;;;;;;15.47;9.57;;;10.60;24.40;;;;;;5093500;28;20175;-68
2022/04/18 06:22:28;;;;;;;15.23;9.48;;;9.80;25.60;;;;;;5093820;28;20210;-67
2022/04/18 06:24:54;;;;;;;15.70;9.80;;;8.80;28.20;;;;;;5095505;28;20621;-68
2022/04/18 06:27:20;;;;;;;17.90;10.30;;;8.60;29.10;;;;;;5094730;28;20189;-68
2022/04/18 06:29:45;;;;;;;20.67;10.03;;;8.40;29.50;;;;;;5108894;28;20185;-67
2022/04/18 06:32:11;;;;;;;16.23;9.90;;;8.90;29.70;;;;;;5096159;28;20182;-67
2022/04/18 06:34:37;;;;;;;18.60;10.10;;;9.30;28.80;;;;;;5095136;28;20261;-68
2022/04/18 06:37:02;;;;;;;16.20;9.90;;;9.60;28.50;;;;;;5094429;28;20200;-68
2022/04/18 06:39:28;;;;;;;22.13;10.20;;;9.50;28.30;;;;;;5108638;28;20181;-68
2022/04/18 06:41:55;;;;;;;16.13;10.00;;;9.10;28.20;;;;;;5109300;28;20172;-69
2022/04/18 06:44:21;;;;;;;14.93;10.07;;;9.00;28.50;;;;;;5109641;28;20625;-71
2022/04/18 06:46:46;;;;;;;13.97;9.50;;;8.60;29.10;;;;;;5112167;27;20317;-71
2022/04/18 06:49:12;;;;;;;13.97;9.40;;;8.50;30.40;;;;;;5103115;28;20193;-71
2022/04/18 06:51:38;;;;;;;16.10;10.03;;;8.60;29.60;;;;;;5101933;28;20195;-70
2022/04/18 06:54:03;;;;;;;18.20;10.37;;;8.90;29.40;;;;;;5104493;28;20212;-71
2022/04/18 06:59:13;;;;;;;14.18;9.20;;;9.50;27.20;;;;;;5100425;28;20180;-70
2022/04/18 07:01:39;;;;;;;15.97;9.70;;;9.80;27.10;;;;;;5098737;28;20267;-71
2022/04/18 07:04:06;;;;;;;17.07;10.30;;;10.50;24.80;;;;;;5106294;28;20183;-70
2022/04/18 07:06:33;;;;;;;20.20;10.20;;;11.30;24.30;;;;;;5096636;28;20184;-70
2022/04/18 07:08:58;;;;;;;20.85;10.15;;;11.40;23.30;;;;;;5102392;28;20185;-70
2022/04/18 07:11:24;;;;;;;17.73;10.40;;;11.50;22.70;;;;;;5113829;27;20547;-69
2022/04/18 07:13:50;;;;;;;14.93;9.30;;;11.80;23.60;;;;;;5109432;28;20174;-71
2022/04/18 07:16:15;;;;;;;17.93;9.40;;;11.20;22.90;;;;;;5110230;28;20656;-70
2022/04/18 07:18:41;;;;;;;15.60;9.33;;;11.20;23.90;;;;;;5114225;28;20165;-71
2022/04/18 07:21:06;;;;;;;13.93;9.17;;;11.80;23.20;;;;;;5113537;27;20177;-72
2022/04/18 07:23:32;;;;;;;14.13;8.57;;;11.80;22.80;;;;;;5113840;28;20253;-69
2022/04/18 07:25:58;;;;;;;13.27;9.03;;;12.20;22.20;;;;;;5113884;28;20640;-71
2022/04/18 07:28:24;;;;;;;15.73;8.40;;;11.70;21.50;;;;;;5111225;28;20166;-70
2022/04/18 07:30:49;;;;;;;14.67;9.00;;;11.50;22.10;;;;;;5105214;28;20183;-71
2022/04/18 07:33:15;;;;;;;20.97;8.80;;;11.40;22.20;;;;;;5105520;28;20438;-70
2022/04/18 07:35:42;;;;;;;16.07;9.13;;;11.10;23.70;;;;;;5090107;28;20194;-70
2022/04/18 07:40:53;;;;;;;13.83;8.40;;;11.80;21.90;;;;;;5111947;28;20450;-69
2022/04/18 07:43:20;;;;;;;17.33;9.00;;;11.40;22.30;;;;;;5106738;28;20416;-68
2022/04/18 07:45:46;;;;;;;14.50;8.97;;;12.10;22.10;;;;;;5075101;28;20465;-69
2022/04/18 07:48:11;;;;;;;14.40;9.20;;;11.20;22.80;;;;;;5094055;28;20903;-69
2022/04/18 07:53:21;;;;;;;12.77;8.60;;;12.00;22.80;;;;;;5094437;28;20189;-69
2022/04/18 07:55:48;;;;;;;15.57;8.60;;;12.50;21.20;;;;;;5092691;28;20464;-70
2022/04/18 07:58:13;;;;;;;15.47;8.70;;;12.60;21.50;;;;;;5094230;28;20170;-69
2022/04/18 08:00:39;;;;;;;12.87;8.87;;;12.60;20.70;;;;;;5124914;27;20427;-71
2022/04/18 08:03:04;;;;;;;13.93;8.73;;;12.40;21.60;;;;;;5133786;27;20944;-70
2022/04/18 08:05:30;;;;;;;13.77;8.77;;;12.70;21.50;;;;;;5095722;27;20347;-70
2022/04/18 08:07:56;;;;;;;15.93;8.30;;;13.00;20.40;;;;;;5092777;28;20262;-72
2022/04/18 08:10:21;;;;;;;13.37;8.80;;;12.50;21.50;;;;;;5095439;28;20187;-68
2022/04/18 08:12:48;;;;;;;13.47;8.27;;;13.00;21.40;;;;;;5092527;28;20192;-74
2022/04/18 08:15:13;;;;;;;11.97;7.70;;;13.50;21.90;;;;;;5095107;28;20902;-71
2022/04/18 08:17:39;;;;;;;15.13;8.47;;;13.80;20.60;;;;;;5100752;28;20430;-70
2022/04/18 08:20:05;;;;;;;12.33;7.53;;;14.00;19.80;;;;;;5104757;28;20188;-70
2022/04/18 08:22:31;;;;;;;14.10;8.20;;;14.30;19.60;;;;;;5110745;28;20228;-70
2022/04/18 08:24:57;;;;;;;11.00;8.10;;;14.50;19.00;;;;;;5104971;28;20443;-70
2022/04/18 08:27:22;;;;;;;12.57;8.00;;;14.50;20.00;;;;;;5092629;28;20175;-70
2022/04/18 08:29:48;;;;;;;10.57;7.50;;;15.00;19.20;;;;;;5110639;28;20211;-70
2022/04/18 08:32:14;;;;;;;16.53;8.07;;;15.10;19.00;;;;;;5097437;28;20188;-71
2022/04/18 08:34:40;;;;;;;13.53;7.47;;;15.20;17.80;;;;;;5077721;28;20212;-71
2022/04/18 08:37:07;;;;;;;12.63;8.40;;;14.90;18.60;;;;;;5112764;28;20492;-72
2022/04/18 08:39:33;;;;;;;18.93;8.87;;;14.70;18.90;;;;;;5105349;28;20535;-70
2022/04/18 08:42:00;;;;;;;15.87;9.00;;;14.70;19.60;;;;;;5099311;28;20425;-69
2022/04/18 08:44:26;;;;;;;13.43;9.00;;;14.90;20.60;;;;;;5111111;28;20430;-71
2022/04/18 08:46:55;;;;;;;15.57;9.10;;;15.00;20.40;;;;;;5109999;28;20821;-71
2022/04/18 08:54:51;;;;;;;14.70;8.70;;;14.40;20.30;;;;;;5090110;28;20479;-70
2022/04/18 08:57:17;;;;;;;11.40;8.40;;;13.80;21.50;;;;;;5090103;28;20898;-70
2022/04/18 08:59:42;;;;;;;14.57;8.10;;;14.50;21.30;;;;;;5090904;28;20190;-71
2022/04/18 09:02:08;;;;;;;21.37;8.73;;;15.30;20.00;;;;;;5091897;28;20177;-71
2022/04/18 09:04:34;;;;;;;14.60;8.47;;;15.00;19.30;;;;;;5096602;27;20215;-71
2022/04/18 09:07:10;;;;;;;15.40;7.63;;;15.20;18.60;;;;;;5110362;28;20704;-70
2022/04/18 09:09:37;;;;;;;12.63;8.23;;;15.40;18.50;;;;;;5100118;28;20453;-71
2022/04/18 09:12:24;;;;;;;13.30;8.60;;;15.80;19.50;;;;;;5112024;28;20921;-71
2022/04/18 09:14:50;;;;;;;12.80;8.10;;;15.90;18.10;;;;;;5099897;28;20476;-70
2022/04/18 09:17:33;;;;;;;11.90;7.80;;;15.10;19.20;;;;;;5091859;28;21009;-72
2022/04/18 09:20:09;;;;;;;13.57;8.20;;;14.80;18.90;;;;;;5091535;28;20407;-72
2022/04/18 09:22:46;;;;;;;13.80;8.20;;;15.10;19.80;;;;;;5105498;28;20419;-71
2022/04/18 09:25:20;;;;;;;11.73;7.70;;;15.50;20.00;;;;;;5110413;28;20527;-71
2022/04/18 09:27:59;;;;;;;11.37;8.00;;;16.10;19.80;;;;;;5091918;28;20417;-71
2022/04/18 09:30:31;;;;;;;11.60;7.90;;;16.30;17.60;;;;;;5090818;28;20845;-69
2022/04/18 09:33:01;;;;;;;13.53;7.93;;;16.60;17.90;;;;;;5098718;28;20420;-71
2022/04/18 09:35:28;;;;;;;12.30;7.40;;;16.60;16.80;;;;;;5108079;28;20518;-71
2022/04/18 09:38:06;;;;;;;11.50;7.40;;;16.70;17.80;;;;;;5098481;28;20459;-71
2022/04/18 09:40:32;;;;;;;11.27;7.27;;;17.20;16.80;;;;;;5083840;28;20822;-70
2022/04/18 09:42:58;;;;;;;10.63;6.90;;;17.50;15.80;;;;;;5110606;28;20476;-70
2022/04/18 09:45:24;;;;;;;14.47;7.33;;;17.00;16.30;;;;;;5090914;28;20441;-69
2022/04/18 09:48:01;;;;;;;10.50;7.17;;;17.10;15.80;;;;;;5103674;28;20416;-69
2022/04/18 09:53:24;;;;;;;13.07;7.57;;;17.60;15.90;;;;;;5091178;28;20399;-71
2022/04/18 09:55:52;;;;;;;12.30;7.30;;;17.60;15.90;;;;;;5091531;28;20982;-72
2022/04/18 09:58:18;;;;;;;16.43;8.13;;;17.90;14.90;;;;;;5096571;28;20417;-71
2022/04/18 10:00:44;;;;;;;11.97;7.10;;;18.30;14.60;;;;;;5095070;28;20520;-71
2022/04/18 10:03:10;;;;;;;11.30;7.23;;;17.70;14.40;;;;;;5094940;28;20175;-71
2022/04/18 10:05:36;;;;;;;10.77;7.40;;;17.90;16.50;;;;;;5094485;28;20209;-72
2022/04/18 10:08:05;;;;;;;10.40;6.47;;;18.50;14.30;;;;;;5096326;28;20483;-72
2022/04/18 10:10:36;;;;;;;13.10;7.27;;;18.60;15.50;;;;;;5095182;28;20548;-71
2022/04/18 10:13:05;;;;;;;16.90;6.80;;;18.10;12.90;;;;;;5095011;28;20893;-71
2022/04/18 10:15:31;;;;;;;9.90;5.93;;;17.70;13.70;;;;;;5108671;28;20445;-72
2022/04/18 10:18:01;;;;;;;12.53;6.67;;;18.00;13.00;;;;;;5115334;28;20441;-72
2022/04/18 10:20:46;;;;;;;11.53;6.13;;;18.10;12.20;;;;;;5115321;28;20408;-71
2022/04/18 10:23:30;;;;;;;9.10;5.80;;;18.70;12.70;;;;;;5115122;28;20406;-72
2022/04/18 10:26:22;;;;;;;10.23;5.93;;;18.70;11.80;;;;;;5094563;28;20450;-72
2022/04/18 10:28:51;;;;;;;10.80;6.40;;;19.00;12.40;;;;;;5115002;28;20417;-72
2022/04/18 10:31:39;;;;;;;9.40;5.60;;;18.80;11.80;;;;;;5114811;28;20916;-71
2022/04/18 10:34:05;;;;;;;8.17;6.00;;;18.60;12.80;;;;;;5114790;28;20470;-71
2022/04/18 10:36:33;;;;;;;9.30;5.97;;;19.00;10.90;;;;;;5113177;28;20489;-70
2022/04/18 10:39:06;;;;;;;12.67;5.87;;;18.60;11.20;;;;;;5114918;28;20408;-71
2022/04/18 10:41:42;;;;;;;11.30;5.60;;;19.30;11.90;;;;;;5114950;28;20804;-71
2022/04/18 10:44:10;;;;;;;9.63;6.33;;;19.60;12.30;;;;;;5114603;28;20408;-71
2022/04/18 10:46:41;;;;;;;7.60;5.80;;;20.10;10.00;;;;;;5112899;28;20422;-69
2022/04/18 10:49:16;;;;;;;10.20;6.00;;;20.10;11.70;;;;;;5096426;28;20438;-71
2022/04/18 10:51:44;;;;;;;9.23;6.40;;;20.20;12.40;;;;;;5114397;28;20403;-70
2022/04/18 10:54:25;;;;;;;8.30;5.90;;;19.80;10.00;;;;;;5114391;28;20442;-71
2022/04/18 10:56:54;;;;;;;9.13;6.17;;;20.50;11.00;;;;;;5112776;28;20843;-71
2022/04/18 10:59:23;;;;;;;10.00;5.67;;;21.10;13.50;;;;;;5088313;28;20424;-71
2022/04/18 11:01:50;;;;;;;8.57;5.50;;;21.50;12.80;;;;;;5093628;28;20413;-71
2022/04/18 11:04:16;;;;;;;8.50;5.70;;;21.60;9.60;;;;;;5093754;28;20500;-71
2022/04/18 11:06:46;;;;;;;8.80;5.60;;;21.80;9.20;;;;;;5093398;28;20418;-71
2022/04/18 11:09:22;;;;;;;7.93;5.40;;;22.50;9.70;;;;;;5109336;28;20448;-71
2022/04/18 11:12:05;;;;;;;9.83;5.90;;;21.90;11.10;;;;;;5114154;28;20437;-71
2022/04/18 11:14:54;;;;;;;8.17;5.63;;;21.80;9.70;;;;;;5115225;28;20431;-71
2022/04/18 11:17:33;;;;;;;8.50;5.77;;;22.00;11.30;;;;;;5114256;28;20546;-71
2022/04/18 11:20:32;;;;;;;11.83;6.13;;;22.00;10.60;;;;;;5104031;28;20433;-71
2022/04/18 11:23:19;;;;;;;12.13;6.33;;;23.10;10.40;;;;;;5093411;28;20882;-71
2022/04/18 11:26:05;;;;;;;8.73;5.57;;;23.40;7.70;;;;;;5093389;28;20493;-71
2022/04/18 11:28:36;;;;;;;8.80;5.50;;;25.10;6.70;;;;;;5093613;28;20465;-73
2022/04/18 11:31:16;;;;;;;8.90;5.33;;;25.70;7.40;;;;;;5111405;28;20420;-72
2022/04/18 11:33:43;;;;;;;7.70;5.00;;;27.00;7.40;;;;;;5113807;28;20460;-72
2022/04/18 11:36:10;;;;;;;14.23;5.37;;;26.20;4.40;;;;;;5113637;28;20462;-70
2022/04/18 11:38:36;;;;;;;10.83;5.10;;;26.80;4.70;;;;;;5113619;28;20490;-72
2022/04/18 11:41:09;;;;;;;7.63;4.83;;;27.80;7.00;;;;;;5112613;28;20502;-72
2022/04/18 11:43:35;;;;;;;7.47;4.60;;;28.40;6.20;;;;;;5113536;28;20194;-72
2022/04/18 11:46:07;;;;;;;8.67;4.80;;;28.20;4.50;;;;;;5113363;28;20462;-72
2022/04/18 11:48:34;;;;;;;5.97;4.50;;;28.70;2.70;;;;;;5113409;28;20169;-71
2022/04/18 11:51:00;;;;;;;6.47;4.50;;;28.90;3.50;;;;;;5112230;28;20416;-72
2022/04/18 11:53:33;;;;;;;7.27;5.37;;;29.70;4.60;;;;;;5094532;28;20769;-72
2022/04/18 11:56:03;;;;;;;6.43;4.70;;;29.70;2.50;;;;;;5092684;28;20228;-72
2022/04/18 11:58:33;;;;;;;9.03;4.60;;;29.20;5.30;;;;;;5092931;28;20455;-72
2022/04/18 12:06:46;;;;;;;7.13;4.70;;;29.60;3.90;;;;;;5113106;28;20460;-72
2022/04/18 12:09:13;;;;;;;7.00;4.40;;;30.40;2.80;;;;;;5113078;28;20399;-72
2022/04/18 12:11:40;;;;;;;6.70;4.70;;;30.50;1.60;;;;;;5112950;28;20403;-72
2022/04/18 12:14:06;;;;;;;8.50;4.73;;;29.50;3.20;;;;;;5111096;28;20473;-72
2022/04/18 12:16:33;;;;;;;6.57;4.93;;;29.40;3.00;;;;;;5112844;28;20455;-70
2022/04/18 12:18:59;;;;;;;6.60;4.50;;;29.60;2.30;;;;;;5111948;28;20162;-72
2022/04/18 12:21:25;;;;;;;6.20;4.90;;;30.10;4.20;;;;;;5113093;28;20427;-72
2022/04/18 12:23:55;;;;;;;6.17;4.80;;;30.50;2.90;;;;;;5110873;28;20193;-72
2022/04/18 12:26:27;;;;;;;5.73;4.50;;;30.20;1.60;;;;;;5112920;28;20407;-72
2022/04/18 12:29:01;;;;;;;7.97;5.33;;;30.40;1.40;;;;;;5112608;28;20395;-72
2022/04/18 12:31:27;;;;;;;9.47;5.63;;;29.90;2.40;;;;;;5112480;28;20411;-72
2022/04/18 12:33:53;;;;;;;7.53;5.40;;;28.90;3.10;;;;;;5110664;28;20415;-72
2022/04/18 12:36:31;;;;;;;6.27;4.87;;;28.10;3.10;;;;;;5112633;28;20462;-72
2022/04/18 12:38:57;;;;;;;7.90;4.70;;;27.40;6.40;;;;;;5112721;28;20170;-72
2022/04/18 12:41:38;;;;;;;10.50;5.50;;;26.40;6.30;;;;;;5112526;28;20444;-72
2022/04/18 12:44:14;;;;;;;7.70;5.20;;;25.70;6.30;;;;;;5111982;28;20201;-71
2022/04/18 12:46:41;;;;;;;10.53;5.80;;;24.90;5.70;;;;;;5111005;28;20953;-73
2022/04/18 12:49:11;;;;;;;7.70;5.40;;;23.50;7.60;;;;;;5112310;28;20425;-72
2022/04/18 12:51:42;;;;;;;12.50;6.17;;;22.70;8.00;;;;;;5112184;28;20932;-71
2022/04/18 12:54:20;;;;;;;10.77;5.70;;;22.80;9.70;;;;;;5112588;28;20480;-72
2022/04/18 12:56:47;;;;;;;10.10;6.23;;;24.20;7.10;;;;;;5110447;28;20508;-72
2022/04/18 12:59:16;;;;;;;9.17;6.10;;;25.10;6.40;;;;;;5112130;28;20407;-72
2022/04/18 13:01:42;;;;;;;7.57;5.50;;;25.90;7.40;;;;;;5112308;28;20802;-72
2022/04/18 13:04:27;;;;;;;10.10;6.20;;;26.00;8.00;;;;;;5111951;28;20415;-72
2022/04/18 13:07:06;;;;;;;11.20;5.70;;;25.40;7.50;;;;;;5083726;28;20590;-71
2022/04/18 13:09:33;;;;;;;7.63;5.67;;;24.80;10.00;;;;;;5092967;28;20400;-72
2022/04/18 13:12:00;;;;;;;9.63;6.10;;;25.30;5.90;;;;;;5112321;28;20419;-72
2022/04/18 13:14:26;;;;;;;8.60;5.93;;;25.60;6.30;;;;;;5111974;28;20428;-72
2022/04/18 13:17:08;;;;;;;8.60;5.93;;;27.00;5.60;;;;;;5111995;28;20454;-72
2022/04/18 13:19:35;;;;;;;14.40;5.87;;;28.30;4.30;;;;;;5112081;28;20172;-70